sensor_id;sensor_type;location;lat;lon;timestamp;temperature;humidity
16785;DHT22;8509;52.178;5.404;2023-06-24T00:02:10;19.30;99.90
16785;DHT22;8509;52.178;5.404;2023-06-24T00:04:36;19.30;99.90
16785;DHT22;8509;52.178;5.404;2023-06-24T00:07:02;19.40;99.90
16785;DHT22;8509;52.178;5.404;2023-06-24T00:09:28;19.20;99.90
16785;DHT22;8509;52.178;5.404;2023-06-24T00:11:56;19.20;99.90
16785;DHT22;8509;52.178;5.404;2023-06-24T00:14:22;19.20;99.90
16785;DHT22;8509;52.178;5.404;2023-06-24T00:16:50;19.20;99.90
16785;DHT22;8509;52.178;5.404;2023-06-24T00:19:21;19.00;99.90
16785;DHT22;8509;52.178;5.404;2023-06-24T00:21:50;19.10;99.90
16785;DHT22;8509;52.178;5.404;2023-06-24T00:24:20;19.00;99.90
16785;DHT22;8509;52.178;5.404;2023-06-24T00:26:53;18.90;99.90
16785;DHT22;8509;52.178;5.404;2023-06-24T00:29:18;18.80;99.90
16785;DHT22;8509;52.178;5.404;2023-06-24T00:31:44;18.60;99.90
16785;DHT22;8509;52.178;5.404;2023-06-24T00:34:10;18.70;99.90
16785;DHT22;8509;52.178;5.404;2023-06-24T00:36:35;18.70;99.90
16785;DHT22;8509;52.178;5.404;2023-06-24T00:39:02;18.70;99.90
16785;DHT22;8509;52.178;5.404;2023-06-24T00:41:30;18.60;99.90
16785;DHT22;8509;52.178;5.404;2023-06-24T00:43:57;18.60;99.90
16785;DHT22;8509;52.178;5.404;2023-06-24T00:46:27;18.50;99.90
16785;DHT22;8509;52.178;5.404;2023-06-24T00:48:57;18.50;99.90
16785;DHT22;8509;52.178;5.404;2023-06-24T00:51:23;18.50;99.90
16785;DHT22;8509;52.178;5.404;2023-06-24T00:53:55;18.40;99.90
16785;DHT22;8509;52.178;5.404;2023-06-24T00:56:28;18.30;99.90
16785;DHT22;8509;52.178;5.404;2023-06-24T00:58:57;18.30;99.90
16785;DHT22;8509;52.178;5.404;2023-06-24T01:01:23;18.20;99.90
16785;DHT22;8509;52.178;5.404;2023-06-24T01:03:49;18.30;99.90
16785;DHT22;8509;52.178;5.404;2023-06-24T01:06:15;18.20;99.90
16785;DHT22;8509;52.178;5.404;2023-06-24T01:08:41;18.20;99.90
16785;DHT22;8509;52.178;5.404;2023-06-24T01:11:07;18.20;99.90
16785;DHT22;8509;52.178;5.404;2023-06-24T01:13:33;18.10;99.90
16785;DHT22;8509;52.178;5.404;2023-06-24T01:16:03;18.10;99.90
16785;DHT22;8509;52.178;5.404;2023-06-24T01:18:40;18.10;99.90
16785;DHT22;8509;52.178;5.404;2023-06-24T01:21:28;18.10;99.90
16785;DHT22;8509;52.178;5.404;2023-06-24T01:24:30;18.00;99.90
16785;DHT22;8509;52.178;5.404;2023-06-24T01:32:53;17.90;99.90
16785;DHT22;8509;52.178;5.404;2023-06-24T01:35:23;17.90;99.90
16785;DHT22;8509;52.178;5.404;2023-06-24T01:37:51;17.80;99.90
16785;DHT22;8509;52.178;5.404;2023-06-24T01:42:47;17.80;99.90
16785;DHT22;8509;52.178;5.404;2023-06-24T01:45:16;17.80;99.90
16785;DHT22;8509;52.178;5.404;2023-06-24T01:47:47;17.70;99.90
16785;DHT22;8509;52.178;5.404;2023-06-24T01:50:15;17.80;99.90
16785;DHT22;8509;52.178;5.404;2023-06-24T01:52:45;17.70;99.90
16785;DHT22;8509;52.178;5.404;2023-06-24T01:55:15;17.60;99.90
16785;DHT22;8509;52.178;5.404;2023-06-24T01:57:42;17.40;99.90
16785;DHT22;8509;52.178;5.404;2023-06-24T02:00:09;17.60;99.90
16785;DHT22;8509;52.178;5.404;2023-06-24T02:02:37;17.40;99.90
16785;DHT22;8509;52.178;5.404;2023-06-24T02:05:05;17.40;99.90
16785;DHT22;8509;52.178;5.404;2023-06-24T02:07:33;17.30;99.90
16785;DHT22;8509;52.178;5.404;2023-06-24T02:10:00;17.40;99.90
16785;DHT22;8509;52.178;5.404;2023-06-24T02:12:26;17.40;99.90
16785;DHT22;8509;52.178;5.404;2023-06-24T02:14:55;17.40;99.90
16785;DHT22;8509;52.178;5.404;2023-06-24T02:17:24;17.40;99.90
16785;DHT22;8509;52.178;5.404;2023-06-24T02:19:51;17.40;99.90
16785;DHT22;8509;52.178;5.404;2023-06-24T02:22:18;17.40;99.90
16785;DHT22;8509;52.178;5.404;2023-06-24T02:24:46;17.30;99.90
16785;DHT22;8509;52.178;5.404;2023-06-24T02:27:13;17.30;99.90
16785;DHT22;8509;52.178;5.404;2023-06-24T02:29:39;17.20;99.90
16785;DHT22;8509;52.178;5.404;2023-06-24T02:32:06;17.20;99.90
16785;DHT22;8509;52.178;5.404;2023-06-24T02:34:32;17.20;99.90
16785;DHT22;8509;52.178;5.404;2023-06-24T02:36:58;17.10;99.90
16785;DHT22;8509;52.178;5.404;2023-06-24T02:39:24;17.10;99.90
16785;DHT22;8509;52.178;5.404;2023-06-24T02:41:49;17.00;99.90
16785;DHT22;8509;52.178;5.404;2023-06-24T02:44:16;17.10;99.90
16785;DHT22;8509;52.178;5.404;2023-06-24T02:46:43;17.10;99.90
16785;DHT22;8509;52.178;5.404;2023-06-24T02:49:13;16.90;99.90
16785;DHT22;8509;52.178;5.404;2023-06-24T02:51:40;16.90;99.90
16785;DHT22;8509;52.178;5.404;2023-06-24T02:54:06;16.90;99.90
16785;DHT22;8509;52.178;5.404;2023-06-24T02:56:32;16.90;99.90
16785;DHT22;8509;52.178;5.404;2023-06-24T02:58:58;16.80;99.90
16785;DHT22;8509;52.178;5.404;2023-06-24T03:01:25;16.80;99.90
16785;DHT22;8509;52.178;5.404;2023-06-24T03:03:56;16.70;99.90
16785;DHT22;8509;52.178;5.404;2023-06-24T03:06:23;16.60;99.90
16785;DHT22;8509;52.178;5.404;2023-06-24T03:08:49;16.70;99.90
16785;DHT22;8509;52.178;5.404;2023-06-24T03:11:16;16.60;99.90
16785;DHT22;8509;52.178;5.404;2023-06-24T03:13:43;16.70;99.90
16785;DHT22;8509;52.178;5.404;2023-06-24T03:16:09;16.60;99.90
16785;DHT22;8509;52.178;5.404;2023-06-24T03:18:42;16.60;99.90
16785;DHT22;8509;52.178;5.404;2023-06-24T03:21:09;16.60;99.90
16785;DHT22;8509;52.178;5.404;2023-06-24T03:23:35;16.60;99.90
16785;DHT22;8509;52.178;5.404;2023-06-24T03:26:01;16.60;99.90
16785;DHT22;8509;52.178;5.404;2023-06-24T03:28:31;16.60;99.90
16785;DHT22;8509;52.178;5.404;2023-06-24T03:30:58;16.60;99.90
16785;DHT22;8509;52.178;5.404;2023-06-24T03:33:27;16.60;99.90
16785;DHT22;8509;52.178;5.404;2023-06-24T03:35:53;16.60;99.90
16785;DHT22;8509;52.178;5.404;2023-06-24T03:38:19;16.60;99.90
16785;DHT22;8509;52.178;5.404;2023-06-24T03:40:45;16.50;99.90
16785;DHT22;8509;52.178;5.404;2023-06-24T03:43:11;16.50;99.90
16785;DHT22;8509;52.178;5.404;2023-06-24T03:45:37;16.50;99.90
16785;DHT22;8509;52.178;5.404;2023-06-24T03:48:03;16.40;99.90
16785;DHT22;8509;52.178;5.404;2023-06-24T03:50:28;16.40;99.90
16785;DHT22;8509;52.178;5.404;2023-06-24T03:52:55;16.50;99.90
16785;DHT22;8509;52.178;5.404;2023-06-24T03:55:21;16.60;99.90
16785;DHT22;8509;52.178;5.404;2023-06-24T03:57:46;16.70;99.90
16785;DHT22;8509;52.178;5.404;2023-06-24T04:00:13;16.50;99.90
16785;DHT22;8509;52.178;5.404;2023-06-24T04:02:42;16.70;99.90
16785;DHT22;8509;52.178;5.404;2023-06-24T04:05:09;16.80;99.90
16785;DHT22;8509;52.178;5.404;2023-06-24T04:07:35;16.80;99.90
16785;DHT22;8509;52.178;5.404;2023-06-24T04:10:02;16.90;99.90
16785;DHT22;8509;52.178;5.404;2023-06-24T04:12:29;16.90;99.90
16785;DHT22;8509;52.178;5.404;2023-06-24T04:14:55;17.00;99.90
16785;DHT22;8509;52.178;5.404;2023-06-24T04:17:22;16.90;99.90
16785;DHT22;8509;52.178;5.404;2023-06-24T04:19:47;17.00;99.90
16785;DHT22;8509;52.178;5.404;2023-06-24T04:22:13;17.00;99.90
16785;DHT22;8509;52.178;5.404;2023-06-24T04:24:39;17.20;99.90
16785;DHT22;8509;52.178;5.404;2023-06-24T04:27:07;17.70;99.90
16785;DHT22;8509;52.178;5.404;2023-06-24T04:29:32;18.90;99.90
16785;DHT22;8509;52.178;5.404;2023-06-24T04:31:59;19.80;99.90
16785;DHT22;8509;52.178;5.404;2023-06-24T04:34:24;20.10;99.90
16785;DHT22;8509;52.178;5.404;2023-06-24T04:36:50;20.40;99.90
16785;DHT22;8509;52.178;5.404;2023-06-24T04:39:16;21.00;99.90
16785;DHT22;8509;52.178;5.404;2023-06-24T04:41:42;22.30;99.90
16785;DHT22;8509;52.178;5.404;2023-06-24T04:44:07;23.40;99.90
16785;DHT22;8509;52.178;5.404;2023-06-24T04:46:33;24.30;99.90
16785;DHT22;8509;52.178;5.404;2023-06-24T04:49:00;24.90;99.90
16785;DHT22;8509;52.178;5.404;2023-06-24T04:51:26;25.50;99.90
16785;DHT22;8509;52.178;5.404;2023-06-24T04:53:51;25.70;99.90
16785;DHT22;8509;52.178;5.404;2023-06-24T04:56:17;25.80;99.90
16785;DHT22;8509;52.178;5.404;2023-06-24T04:58:43;25.60;99.90
16785;DHT22;8509;52.178;5.404;2023-06-24T05:01:10;25.50;99.90
16785;DHT22;8509;52.178;5.404;2023-06-24T05:03:35;25.30;99.90
16785;DHT22;8509;52.178;5.404;2023-06-24T05:06:01;25.10;99.90
16785;DHT22;8509;52.178;5.404;2023-06-24T05:08:27;24.60;99.90
16785;DHT22;8509;52.178;5.404;2023-06-24T05:10:52;24.00;99.90
16785;DHT22;8509;52.178;5.404;2023-06-24T05:13:18;23.50;99.90
16785;DHT22;8509;52.178;5.404;2023-06-24T05:15:44;23.00;99.90
16785;DHT22;8509;52.178;5.404;2023-06-24T05:18:10;22.70;99.90
16785;DHT22;8509;52.178;5.404;2023-06-24T05:20:35;22.40;99.90
16785;DHT22;8509;52.178;5.404;2023-06-24T05:23:01;22.90;99.90
16785;DHT22;8509;52.178;5.404;2023-06-24T05:25:27;23.40;99.90
16785;DHT22;8509;52.178;5.404;2023-06-24T05:27:52;23.80;99.90
16785;DHT22;8509;52.178;5.404;2023-06-24T05:30:18;24.30;99.90
16785;DHT22;8509;52.178;5.404;2023-06-24T05:32:44;24.90;99.90
16785;DHT22;8509;52.178;5.404;2023-06-24T05:35:10;25.40;99.90
16785;DHT22;8509;52.178;5.404;2023-06-24T05:44:04;26.80;99.90
16785;DHT22;8509;52.178;5.404;2023-06-24T05:46:30;27.10;99.90
16785;DHT22;8509;52.178;5.404;2023-06-24T05:48:59;27.30;99.90
16785;DHT22;8509;52.178;5.404;2023-06-24T05:51:25;27.50;99.90
16785;DHT22;8509;52.178;5.404;2023-06-24T05:53:50;27.70;99.90
16785;DHT22;8509;52.178;5.404;2023-06-24T05:56:16;27.50;99.90
16785;DHT22;8509;52.178;5.404;2023-06-24T05:58:42;27.60;99.90
16785;DHT22;8509;52.178;5.404;2023-06-24T06:01:09;28.20;99.90
16785;DHT22;8509;52.178;5.404;2023-06-24T06:03:35;28.20;99.90
16785;DHT22;8509;52.178;5.404;2023-06-24T06:06:01;28.40;99.90
16785;DHT22;8509;52.178;5.404;2023-06-24T06:08:27;28.50;99.90
16785;DHT22;8509;52.178;5.404;2023-06-24T06:10:53;28.70;99.90
16785;DHT22;8509;52.178;5.404;2023-06-24T06:13:18;29.00;99.90
16785;DHT22;8509;52.178;5.404;2023-06-24T06:15:44;29.40;99.90
16785;DHT22;8509;52.178;5.404;2023-06-24T06:18:10;29.40;99.90
16785;DHT22;8509;52.178;5.404;2023-06-24T06:20:35;29.60;99.90
16785;DHT22;8509;52.178;5.404;2023-06-24T06:23:01;29.80;99.90
16785;DHT22;8509;52.178;5.404;2023-06-24T06:25:27;30.00;99.90
16785;DHT22;8509;52.178;5.404;2023-06-24T06:27:52;30.20;99.90
16785;DHT22;8509;52.178;5.404;2023-06-24T06:30:18;30.00;99.90
16785;DHT22;8509;52.178;5.404;2023-06-24T06:32:44;30.00;99.90
16785;DHT22;8509;52.178;5.404;2023-06-24T06:35:10;30.50;99.90
16785;DHT22;8509;52.178;5.404;2023-06-24T06:37:36;31.00;99.90
16785;DHT22;8509;52.178;5.404;2023-06-24T06:40:02;31.30;99.90
16785;DHT22;8509;52.178;5.404;2023-06-24T06:42:29;31.60;99.90
16785;DHT22;8509;52.178;5.404;2023-06-24T06:44:55;31.80;99.90
16785;DHT22;8509;52.178;5.404;2023-06-24T06:47:20;32.10;99.90
16785;DHT22;8509;52.178;5.404;2023-06-24T06:49:49;32.30;99.90
16785;DHT22;8509;52.178;5.404;2023-06-24T06:52:15;32.10;99.90
16785;DHT22;8509;52.178;5.404;2023-06-24T06:54:41;32.30;99.90
16785;DHT22;8509;52.178;5.404;2023-06-24T06:57:09;33.00;99.90
16785;DHT22;8509;52.178;5.404;2023-06-24T06:59:35;33.30;99.90
16785;DHT22;8509;52.178;5.404;2023-06-24T07:02:01;33.50;99.90
16785;DHT22;8509;52.178;5.404;2023-06-24T07:04:27;33.40;99.90
16785;DHT22;8509;52.178;5.404;2023-06-24T07:06:52;33.80;99.90
16785;DHT22;8509;52.178;5.404;2023-06-24T07:09:19;34.00;99.90
16785;DHT22;8509;52.178;5.404;2023-06-24T07:11:45;34.20;99.90
16785;DHT22;8509;52.178;5.404;2023-06-24T07:14:10;34.50;99.90
16785;DHT22;8509;52.178;5.404;2023-06-24T07:16:36;34.60;99.90
16785;DHT22;8509;52.178;5.404;2023-06-24T07:19:02;35.00;99.60
16785;DHT22;8509;52.178;5.404;2023-06-24T07:21:28;35.10;99.40
16785;DHT22;8509;52.178;5.404;2023-06-24T07:23:54;35.00;99.00
16785;DHT22;8509;52.178;5.404;2023-06-24T07:26:19;34.80;99.30
16785;DHT22;8509;52.178;5.404;2023-06-24T07:28:46;35.10;99.40
16785;DHT22;8509;52.178;5.404;2023-06-24T07:31:12;35.20;99.00
16785;DHT22;8509;52.178;5.404;2023-06-24T07:33:37;35.50;98.70
16785;DHT22;8509;52.178;5.404;2023-06-24T07:36:03;35.90;98.40
16785;DHT22;8509;52.178;5.404;2023-06-24T07:38:32;36.10;97.20
16785;DHT22;8509;52.178;5.404;2023-06-24T07:40:58;36.00;98.00
16785;DHT22;8509;52.178;5.404;2023-06-24T07:43:23;36.20;97.40
16785;DHT22;8509;52.178;5.404;2023-06-24T07:45:49;36.10;97.90
16785;DHT22;8509;52.178;5.404;2023-06-24T07:48:15;36.40;97.40
16785;DHT22;8509;52.178;5.404;2023-06-24T07:50:40;36.40;97.40
16785;DHT22;8509;52.178;5.404;2023-06-24T07:53:06;36.50;97.00
16785;DHT22;8509;52.178;5.404;2023-06-24T07:55:39;36.40;97.30
16785;DHT22;8509;52.178;5.404;2023-06-24T07:58:05;36.80;97.20
16785;DHT22;8509;52.178;5.404;2023-06-24T08:00:31;37.20;96.70
16785;DHT22;8509;52.178;5.404;2023-06-24T08:03:00;37.00;96.80
16785;DHT22;8509;52.178;5.404;2023-06-24T08:05:25;37.30;96.80
16785;DHT22;8509;52.178;5.404;2023-06-24T08:07:52;37.30;96.80
16785;DHT22;8509;52.178;5.404;2023-06-24T08:10:18;37.40;96.60
16785;DHT22;8509;52.178;5.404;2023-06-24T08:12:43;37.50;96.90
16785;DHT22;8509;52.178;5.404;2023-06-24T08:15:09;37.60;96.20
16785;DHT22;8509;52.178;5.404;2023-06-24T08:17:35;37.90;96.20
16785;DHT22;8509;52.178;5.404;2023-06-24T08:20:04;38.20;96.00
16785;DHT22;8509;52.178;5.404;2023-06-24T08:22:30;37.80;96.10
16785;DHT22;8509;52.178;5.404;2023-06-24T08:24:59;37.80;95.90
16785;DHT22;8509;52.178;5.404;2023-06-24T08:27:25;38.10;95.50
16785;DHT22;8509;52.178;5.404;2023-06-24T08:29:52;38.40;95.50
16785;DHT22;8509;52.178;5.404;2023-06-24T08:32:18;38.20;95.60
16785;DHT22;8509;52.178;5.404;2023-06-24T08:34:44;38.40;95.60
16785;DHT22;8509;52.178;5.404;2023-06-24T08:37:09;38.70;95.30
16785;DHT22;8509;52.178;5.404;2023-06-24T08:39:35;38.80;95.00
16785;DHT22;8509;52.178;5.404;2023-06-24T08:42:04;38.60;94.90
16785;DHT22;8509;52.178;5.404;2023-06-24T08:44:30;38.80;94.60
16785;DHT22;8509;52.178;5.404;2023-06-24T08:46:56;38.40;94.90
16785;DHT22;8509;52.178;5.404;2023-06-24T08:51:51;37.90;95.10
16785;DHT22;8509;52.178;5.404;2023-06-24T08:54:20;38.30;95.00
16785;DHT22;8509;52.178;5.404;2023-06-24T08:56:46;38.10;94.90
16785;DHT22;8509;52.178;5.404;2023-06-24T08:59:12;38.60;95.20
16785;DHT22;8509;52.178;5.404;2023-06-24T09:01:38;39.00;94.90
16785;DHT22;8509;52.178;5.404;2023-06-24T09:04:04;38.90;94.30
16785;DHT22;8509;52.178;5.404;2023-06-24T09:06:31;38.70;94.90
16785;DHT22;8509;52.178;5.404;2023-06-24T09:08:57;38.70;94.60
16785;DHT22;8509;52.178;5.404;2023-06-24T09:11:26;38.50;95.00
16785;DHT22;8509;52.178;5.404;2023-06-24T09:13:57;38.20;95.20
16785;DHT22;8509;52.178;5.404;2023-06-24T09:16:23;37.70;94.90
16785;DHT22;8509;52.178;5.404;2023-06-24T09:18:50;37.30;95.10
16785;DHT22;8509;52.178;5.404;2023-06-24T09:21:29;36.60;95.30
16785;DHT22;8509;52.178;5.404;2023-06-24T09:23:57;35.90;96.10
16785;DHT22;8509;52.178;5.404;2023-06-24T09:26:24;35.40;96.40
16785;DHT22;8509;52.178;5.404;2023-06-24T09:28:50;35.00;96.50
16785;DHT22;8509;52.178;5.404;2023-06-24T09:31:17;34.50;96.70
16785;DHT22;8509;52.178;5.404;2023-06-24T09:33:44;34.20;97.30
16785;DHT22;8509;52.178;5.404;2023-06-24T09:36:16;33.90;97.60
16785;DHT22;8509;52.178;5.404;2023-06-24T09:38:43;33.80;97.60
16785;DHT22;8509;52.178;5.404;2023-06-24T09:41:12;33.60;97.50
16785;DHT22;8509;52.178;5.404;2023-06-24T09:43:42;33.50;98.00
16785;DHT22;8509;52.178;5.404;2023-06-24T09:46:10;33.50;97.90
16785;DHT22;8509;52.178;5.404;2023-06-24T09:48:36;33.40;97.90
16785;DHT22;8509;52.178;5.404;2023-06-24T09:51:03;33.20;97.30
16785;DHT22;8509;52.178;5.404;2023-06-24T09:53:33;33.20;97.90
16785;DHT22;8509;52.178;5.404;2023-06-24T09:56:00;33.10;98.20
16785;DHT22;8509;52.178;5.404;2023-06-24T09:58:31;33.00;98.80
16785;DHT22;8509;52.178;5.404;2023-06-24T10:01:00;33.00;98.30
16785;DHT22;8509;52.178;5.404;2023-06-24T10:03:27;32.80;98.70
16785;DHT22;8509;52.178;5.404;2023-06-24T10:05:54;32.90;98.90
16785;DHT22;8509;52.178;5.404;2023-06-24T10:08:19;32.60;98.80
16785;DHT22;8509;52.178;5.404;2023-06-24T10:10:46;32.60;98.50
16785;DHT22;8509;52.178;5.404;2023-06-24T10:13:12;32.60;98.40
16785;DHT22;8509;52.178;5.404;2023-06-24T10:15:38;32.60;98.80
16785;DHT22;8509;52.178;5.404;2023-06-24T10:18:44;32.40;99.10
16785;DHT22;8509;52.178;5.404;2023-06-24T10:21:10;32.30;99.60
16785;DHT22;8509;52.178;5.404;2023-06-24T10:26:28;32.00;98.90
16785;DHT22;8509;52.178;5.404;2023-06-24T10:37:02;32.10;99.90
16785;DHT22;8509;52.178;5.404;2023-06-24T10:39:53;32.00;99.70
16785;DHT22;8509;52.178;5.404;2023-06-24T10:42:38;32.00;99.50
16785;DHT22;8509;52.178;5.404;2023-06-24T10:47:48;32.10;99.90
16785;DHT22;8509;52.178;5.404;2023-06-24T10:50:17;32.10;99.20
16785;DHT22;8509;52.178;5.404;2023-06-24T10:52:45;32.30;99.50
16785;DHT22;8509;52.178;5.404;2023-06-24T10:55:13;32.30;99.50
16785;DHT22;8509;52.178;5.404;2023-06-24T10:57:39;32.10;99.90
16785;DHT22;8509;52.178;5.404;2023-06-24T11:00:05;31.70;99.90
16785;DHT22;8509;52.178;5.404;2023-06-24T11:02:31;31.50;99.90
16785;DHT22;8509;52.178;5.404;2023-06-24T11:04:58;31.20;99.90
16785;DHT22;8509;52.178;5.404;2023-06-24T11:07:27;31.50;99.90
16785;DHT22;8509;52.178;5.404;2023-06-24T11:09:59;31.70;99.90
16785;DHT22;8509;52.178;5.404;2023-06-24T11:12:26;32.00;99.90
16785;DHT22;8509;52.178;5.404;2023-06-24T11:14:58;32.00;99.90
16785;DHT22;8509;52.178;5.404;2023-06-24T11:17:25;32.00;99.90
16785;DHT22;8509;52.178;5.404;2023-06-24T11:19:52;31.70;99.90
16785;DHT22;8509;52.178;5.404;2023-06-24T11:22:18;31.50;99.90
16785;DHT22;8509;52.178;5.404;2023-06-24T11:24:43;31.50;99.90
16785;DHT22;8509;52.178;5.404;2023-06-24T11:27:09;31.60;99.90
16785;DHT22;8509;52.178;5.404;2023-06-24T11:29:35;31.60;99.90
16785;DHT22;8509;52.178;5.404;2023-06-24T11:32:02;31.60;99.90
16785;DHT22;8509;52.178;5.404;2023-06-24T11:34:29;31.50;99.90
16785;DHT22;8509;52.178;5.404;2023-06-24T11:36:55;31.50;99.90
16785;DHT22;8509;52.178;5.404;2023-06-24T11:39:25;31.60;99.90
16785;DHT22;8509;52.178;5.404;2023-06-24T11:41:51;31.70;99.90
16785;DHT22;8509;52.178;5.404;2023-06-24T11:44:18;31.90;99.90
16785;DHT22;8509;52.178;5.404;2023-06-24T11:46:44;31.80;99.90
16785;DHT22;8509;52.178;5.404;2023-06-24T11:49:10;31.70;99.90
16785;DHT22;8509;52.178;5.404;2023-06-24T11:51:36;31.50;99.90
16785;DHT22;8509;52.178;5.404;2023-06-24T11:54:03;31.40;99.90
16785;DHT22;8509;52.178;5.404;2023-06-24T11:56:36;31.40;99.90
16785;DHT22;8509;52.178;5.404;2023-06-24T11:59:04;31.20;99.90
16785;DHT22;8509;52.178;5.404;2023-06-24T12:01:34;31.20;99.90
16785;DHT22;8509;52.178;5.404;2023-06-24T12:04:12;31.10;99.90
16785;DHT22;8509;52.178;5.404;2023-06-24T12:06:42;31.10;99.90
16785;DHT22;8509;52.178;5.404;2023-06-24T12:09:08;30.80;99.90
16785;DHT22;8509;52.178;5.404;2023-06-24T12:11:35;30.80;99.90
16785;DHT22;8509;52.178;5.404;2023-06-24T12:14:01;30.70;99.90
16785;DHT22;8509;52.178;5.404;2023-06-24T12:16:27;30.80;99.90
16785;DHT22;8509;52.178;5.404;2023-06-24T12:18:53;30.90;99.90
16785;DHT22;8509;52.178;5.404;2023-06-24T12:21:19;30.90;99.90
16785;DHT22;8509;52.178;5.404;2023-06-24T12:23:46;31.00;99.90
16785;DHT22;8509;52.178;5.404;2023-06-24T12:26:12;30.80;99.90
16785;DHT22;8509;52.178;5.404;2023-06-24T12:28:38;30.80;99.90
16785;DHT22;8509;52.178;5.404;2023-06-24T12:31:04;30.60;99.90
16785;DHT22;8509;52.178;5.404;2023-06-24T12:33:32;30.40;99.90
16785;DHT22;8509;52.178;5.404;2023-06-24T12:35:59;30.30;99.90
16785;DHT22;8509;52.178;5.404;2023-06-24T12:38:24;30.60;99.90
16785;DHT22;8509;52.178;5.404;2023-06-24T12:40:50;30.70;99.90
16785;DHT22;8509;52.178;5.404;2023-06-24T12:43:16;30.80;99.90
16785;DHT22;8509;52.178;5.404;2023-06-24T12:45:42;31.00;99.90
16785;DHT22;8509;52.178;5.404;2023-06-24T12:48:12;31.30;99.90
16785;DHT22;8509;52.178;5.404;2023-06-24T12:50:38;31.70;99.90
16785;DHT22;8509;52.178;5.404;2023-06-24T12:53:05;31.90;99.90
16785;DHT22;8509;52.178;5.404;2023-06-24T12:55:31;31.80;99.90
16785;DHT22;8509;52.178;5.404;2023-06-24T12:57:57;31.30;99.90
16785;DHT22;8509;52.178;5.404;2023-06-24T13:00:23;31.20;99.90
16785;DHT22;8509;52.178;5.404;2023-06-24T13:02:50;31.30;99.90
16785;DHT22;8509;52.178;5.404;2023-06-24T13:05:16;31.30;99.90
16785;DHT22;8509;52.178;5.404;2023-06-24T13:07:42;31.40;99.90
16785;DHT22;8509;52.178;5.404;2023-06-24T13:10:10;31.30;99.90
16785;DHT22;8509;52.178;5.404;2023-06-24T13:12:36;31.30;99.90
16785;DHT22;8509;52.178;5.404;2023-06-24T13:15:03;31.30;99.90
16785;DHT22;8509;52.178;5.404;2023-06-24T13:17:32;31.30;99.90
16785;DHT22;8509;52.178;5.404;2023-06-24T13:19:58;31.50;99.90
16785;DHT22;8509;52.178;5.404;2023-06-24T13:22:24;31.80;99.90
16785;DHT22;8509;52.178;5.404;2023-06-24T13:24:50;31.60;99.90
16785;DHT22;8509;52.178;5.404;2023-06-24T13:27:16;31.80;99.90
16785;DHT22;8509;52.178;5.404;2023-06-24T13:29:42;31.50;99.90
16785;DHT22;8509;52.178;5.404;2023-06-24T13:32:08;31.30;99.90
16785;DHT22;8509;52.178;5.404;2023-06-24T13:34:34;31.20;99.90
16785;DHT22;8509;52.178;5.404;2023-06-24T13:37:00;31.00;99.90
16785;DHT22;8509;52.178;5.404;2023-06-24T13:39:25;31.10;99.90
16785;DHT22;8509;52.178;5.404;2023-06-24T13:41:53;31.30;99.90
16785;DHT22;8509;52.178;5.404;2023-06-24T13:44:19;31.40;99.90
16785;DHT22;8509;52.178;5.404;2023-06-24T13:46:45;31.50;99.90
16785;DHT22;8509;52.178;5.404;2023-06-24T13:49:11;31.60;99.90
16785;DHT22;8509;52.178;5.404;2023-06-24T13:51:37;31.40;99.90
16785;DHT22;8509;52.178;5.404;2023-06-24T13:54:03;31.20;99.90
16785;DHT22;8509;52.178;5.404;2023-06-24T13:56:28;31.20;99.90
16785;DHT22;8509;52.178;5.404;2023-06-24T13:58:55;31.30;99.90
16785;DHT22;8509;52.178;5.404;2023-06-24T14:01:21;31.30;99.90
16785;DHT22;8509;52.178;5.404;2023-06-24T14:03:47;31.40;99.90
16785;DHT22;8509;52.178;5.404;2023-06-24T14:06:17;31.60;99.90
16785;DHT22;8509;52.178;5.404;2023-06-24T14:08:43;31.70;99.90
16785;DHT22;8509;52.178;5.404;2023-06-24T14:11:09;31.80;99.90
16785;DHT22;8509;52.178;5.404;2023-06-24T14:13:35;31.80;99.90
16785;DHT22;8509;52.178;5.404;2023-06-24T14:16:02;31.80;99.90
16785;DHT22;8509;52.178;5.404;2023-06-24T14:18:28;31.80;99.90
16785;DHT22;8509;52.178;5.404;2023-06-24T14:20:58;31.70;99.90
16785;DHT22;8509;52.178;5.404;2023-06-24T14:23:23;31.60;99.90
16785;DHT22;8509;52.178;5.404;2023-06-24T14:25:51;31.50;99.90
16785;DHT22;8509;52.178;5.404;2023-06-24T14:28:17;31.70;99.90
16785;DHT22;8509;52.178;5.404;2023-06-24T14:30:43;31.70;99.90
16785;DHT22;8509;52.178;5.404;2023-06-24T14:33:10;31.90;99.90
16785;DHT22;8509;52.178;5.404;2023-06-24T14:35:36;31.90;99.90
16785;DHT22;8509;52.178;5.404;2023-06-24T14:38:01;32.20;99.90
16785;DHT22;8509;52.178;5.404;2023-06-24T14:40:27;32.40;99.70
16785;DHT22;8509;52.178;5.404;2023-06-24T14:42:53;32.30;99.90
16785;DHT22;8509;52.178;5.404;2023-06-24T14:45:20;32.30;99.90
16785;DHT22;8509;52.178;5.404;2023-06-24T14:47:47;32.50;99.70
16785;DHT22;8509;52.178;5.404;2023-06-24T14:50:13;32.80;99.60
16785;DHT22;8509;52.178;5.404;2023-06-24T14:52:39;32.80;99.50
16785;DHT22;8509;52.178;5.404;2023-06-24T14:55:05;32.80;99.30
16785;DHT22;8509;52.178;5.404;2023-06-24T14:57:31;32.90;99.50
16785;DHT22;8509;52.178;5.404;2023-06-24T14:59:57;32.90;99.40
16785;DHT22;8509;52.178;5.404;2023-06-24T15:02:22;32.90;99.30
16785;DHT22;8509;52.178;5.404;2023-06-24T15:04:50;32.70;99.30
16785;DHT22;8509;52.178;5.404;2023-06-24T15:07:15;32.30;99.50
16785;DHT22;8509;52.178;5.404;2023-06-24T15:09:41;32.40;99.60
16785;DHT22;8509;52.178;5.404;2023-06-24T15:12:08;32.60;99.50
16785;DHT22;8509;52.178;5.404;2023-06-24T15:14:34;32.60;99.90
16785;DHT22;8509;52.178;5.404;2023-06-24T15:17:00;32.60;99.80
16785;DHT22;8509;52.178;5.404;2023-06-24T15:19:26;32.60;99.90
16785;DHT22;8509;52.178;5.404;2023-06-24T15:21:52;32.70;99.80
16785;DHT22;8509;52.178;5.404;2023-06-24T15:24:18;32.70;99.50
16785;DHT22;8509;52.178;5.404;2023-06-24T15:26:44;32.60;99.90
16785;DHT22;8509;52.178;5.404;2023-06-24T15:29:09;32.30;99.70
16785;DHT22;8509;52.178;5.404;2023-06-24T15:31:35;32.30;99.90
16785;DHT22;8509;52.178;5.404;2023-06-24T15:34:01;32.40;99.90
16785;DHT22;8509;52.178;5.404;2023-06-24T15:36:26;32.30;99.70
16785;DHT22;8509;52.178;5.404;2023-06-24T15:38:54;32.50;99.70
16785;DHT22;8509;52.178;5.404;2023-06-24T15:41:20;32.40;99.50
16785;DHT22;8509;52.178;5.404;2023-06-24T15:43:46;32.10;99.90
16785;DHT22;8509;52.178;5.404;2023-06-24T15:46:12;32.00;99.90
16785;DHT22;8509;52.178;5.404;2023-06-24T15:48:37;31.90;99.90
16785;DHT22;8509;52.178;5.404;2023-06-24T15:51:03;31.80;99.90
16785;DHT22;8509;52.178;5.404;2023-06-24T15:53:29;31.60;99.90
16785;DHT22;8509;52.178;5.404;2023-06-24T15:55:55;31.20;99.90
16785;DHT22;8509;52.178;5.404;2023-06-24T15:58:21;31.00;99.90
16785;DHT22;8509;52.178;5.404;2023-06-24T16:00:46;30.80;99.90
16785;DHT22;8509;52.178;5.404;2023-06-24T16:03:12;30.50;99.90
16785;DHT22;8509;52.178;5.404;2023-06-24T16:05:38;29.70;99.90
16785;DHT22;8509;52.178;5.404;2023-06-24T16:08:05;29.60;99.90
16785;DHT22;8509;52.178;5.404;2023-06-24T16:10:31;29.10;99.90
16785;DHT22;8509;52.178;5.404;2023-06-24T16:12:59;29.10;99.90
16785;DHT22;8509;52.178;5.404;2023-06-24T16:15:25;29.40;99.90